Terminal Aerodrome Forecast
Issued by NWS

Home | Current Version | Previous Version | Text Only | Print | Product List | Glossary On
Versions: 1 2 3 4 5 6 7 8 9 10 11 12 13 14 15 16 17 18 19 20 21 22
935
FTUS41 KPBZ 250821 AAB
TAFFKL
TAF AMD
KFKL 250821Z 2508/2606 09003KT P6SM SCT250
      TEMPO 2508/2512 1SM BR
      AMD LTD TO CLD VIS AND WIND=

USA.gov is the U.S. government's official web portal to all federal, state and local government web resources and services.